createdAt,value
2018-01-14T00:01:57.051Z,-1.00
2018-01-14T00:04:24.587Z,-1.10
2018-01-14T00:06:52.155Z,-1.10
2018-01-14T00:09:20.497Z,-1.00
2018-01-14T00:11:48.064Z,-1.00
2018-01-14T00:14:16.629Z,-0.90
2018-01-14T00:16:44.936Z,-1.00
2018-01-14T00:19:12.516Z,-1.00
2018-01-14T00:21:40.216Z,-1.00
2018-01-14T00:24:10.331Z,-1.10
2018-01-14T00:26:37.846Z,-1.10
2018-01-14T00:29:06.220Z,-1.10
2018-01-14T00:31:33.754Z,-1.10
2018-01-14T00:34:01.326Z,-1.10
2018-01-14T00:36:28.900Z,-1.10
2018-01-14T00:38:56.472Z,-1.10
2018-01-14T00:41:24.049Z,-1.00
2018-01-14T00:43:51.923Z,-1.20
2018-01-14T00:46:19.471Z,-1.10
2018-01-14T00:48:47.021Z,-1.10
2018-01-14T00:51:14.586Z,-1.20
2018-01-14T00:53:42.883Z,-1.10
2018-01-14T00:56:10.390Z,-1.20
2018-01-14T00:58:38.140Z,-1.10
2018-01-14T01:01:06.487Z,-1.10
2018-01-14T01:03:34.064Z,-1.20
2018-01-14T01:06:01.638Z,-1.20
2018-01-14T01:08:29.213Z,-1.20
2018-01-14T01:10:56.792Z,-1.10
2018-01-14T01:13:24.400Z,-1.20
2018-01-14T01:15:52.035Z,-1.20
2018-01-14T01:18:19.577Z,-1.20
2018-01-14T01:20:47.135Z,-1.10
2018-01-14T01:23:16.212Z,-1.10
2018-01-14T01:25:43.749Z,-1.10
2018-01-14T01:28:11.581Z,-1.10
2018-01-14T01:30:39.151Z,-1.10
2018-01-14T01:33:06.725Z,-1.20
2018-01-14T01:35:35.288Z,-1.30
2018-01-14T01:38:03.603Z,-1.30
2018-01-14T01:40:31.172Z,-1.30
2018-01-14T01:42:58.944Z,-1.30
2018-01-14T01:45:27.252Z,-1.20
2018-01-14T01:47:54.832Z,-1.20
2018-01-14T01:50:22.391Z,-1.20
2018-01-14T01:52:50.692Z,-1.20
2018-01-14T01:55:18.284Z,-1.20
2018-01-14T01:57:46.827Z,-1.20
2018-01-14T02:00:14.370Z,-1.20
2018-01-14T02:02:42.004Z,-1.20
2018-01-14T02:05:09.798Z,-1.20
2018-01-14T02:07:38.141Z,-1.30
2018-01-14T02:10:05.671Z,-1.30
2018-01-14T02:12:33.239Z,-1.40
2018-01-14T02:15:00.819Z,-1.40
2018-01-14T02:17:28.398Z,-1.40
2018-01-14T02:19:55.955Z,-1.30
2018-01-14T02:22:23.580Z,-1.40
2018-01-14T02:24:51.203Z,-1.40
2018-01-14T02:27:19.028Z,-1.40
2018-01-14T02:29:47.364Z,-1.30
2018-01-14T02:32:14.938Z,-1.30
2018-01-14T02:34:43.459Z,-1.20
2018-01-14T02:37:11.047Z,-1.30
2018-01-14T02:39:39.351Z,-1.20
2018-01-14T02:42:06.879Z,-1.20
2018-01-14T02:44:34.445Z,-1.30
2018-01-14T02:47:01.983Z,-1.30
2018-01-14T02:49:29.612Z,-1.30
2018-01-14T02:51:57.189Z,-1.30
2018-01-14T02:54:24.701Z,-1.40
2018-01-14T02:56:52.264Z,-1.30
2018-01-14T02:59:19.845Z,-1.30
2018-01-14T03:01:48.190Z,-1.60
2018-01-14T03:04:16.571Z,-1.50
2018-01-14T03:06:44.879Z,-1.60
2018-01-14T03:09:12.422Z,-1.60
2018-01-14T03:11:39.997Z,-1.60
2018-01-14T03:14:07.572Z,-1.50
2018-01-14T03:16:35.909Z,-1.50
2018-01-14T03:19:03.560Z,-1.50
2018-01-14T03:21:31.106Z,-1.50
2018-01-14T03:23:58.618Z,-1.40
2018-01-14T03:26:26.525Z,-1.50
2018-01-14T03:28:54.928Z,-1.30
2018-01-14T03:31:22.471Z,-1.30
2018-01-14T03:33:50.267Z,-1.30
2018-01-14T03:36:18.609Z,-1.20
2018-01-14T03:38:46.139Z,-1.20
2018-01-14T03:41:13.932Z,-1.20
2018-01-14T03:43:42.233Z,-1.20
2018-01-14T03:46:09.808Z,-1.20
2018-01-14T03:48:37.361Z,-1.20
2018-01-14T03:51:05.055Z,-1.20
2018-01-14T03:53:32.644Z,-1.20
2018-01-14T03:56:00.207Z,-1.10
2018-01-14T03:58:28.548Z,-1.10
2018-01-14T04:00:56.090Z,-1.10
2018-01-14T04:03:24.043Z,-1.10
2018-01-14T04:05:51.612Z,-1.10
2018-01-14T04:08:20.025Z,-1.10
2018-01-14T04:10:47.945Z,-1.10
2018-01-14T04:13:15.487Z,-1.00
2018-01-14T04:15:43.027Z,-0.90
2018-01-14T04:18:10.606Z,-0.80
2018-01-14T04:20:38.180Z,-0.80
2018-01-14T04:23:05.781Z,-0.80
2018-01-14T04:25:33.551Z,-0.80
2018-01-14T04:28:01.112Z,-0.70
2018-01-14T04:30:28.655Z,-0.70
2018-01-14T04:32:56.230Z,-0.60
2018-01-14T04:35:24.568Z,-0.70
2018-01-14T04:37:52.107Z,-0.70
2018-01-14T04:40:19.708Z,-0.60
2018-01-14T04:42:47.284Z,-0.70
2018-01-14T04:45:14.874Z,-0.60
2018-01-14T04:47:43.287Z,-0.50
2018-01-14T04:50:10.864Z,-0.60
2018-01-14T04:52:38.604Z,-0.50
2018-01-14T04:55:06.204Z,-0.50
2018-01-14T04:57:33.761Z,-0.40
2018-01-14T05:00:02.156Z,-0.30
2018-01-14T05:02:30.104Z,-0.40
2018-01-14T05:04:57.648Z,-0.40
2018-01-14T05:07:25.170Z,-0.40
2018-01-14T05:09:52.808Z,-0.50
2018-01-14T05:12:20.338Z,-0.50
2018-01-14T05:14:47.879Z,-0.50
2018-01-14T05:17:15.477Z,-0.50
2018-01-14T05:19:43.053Z,-0.50
2018-01-14T05:22:10.655Z,-0.40
2018-01-14T05:24:38.398Z,-0.30
2018-01-14T05:27:05.943Z,-0.30
2018-01-14T05:29:33.529Z,-0.30
2018-01-14T05:32:01.372Z,-0.30
2018-01-14T05:34:28.953Z,-0.30
2018-01-14T05:36:56.616Z,-0.20
2018-01-14T05:39:24.182Z,-0.20
2018-01-14T05:41:51.758Z,-0.20
2018-01-14T05:44:19.308Z,-0.20
2018-01-14T05:46:46.917Z,-0.10
2018-01-14T05:49:14.492Z,-0.10
2018-01-14T05:51:42.027Z,0.00
2018-01-14T05:54:10.638Z,0.10
2018-01-14T05:56:38.209Z,0.00
2018-01-14T05:59:05.780Z,0.00
2018-01-14T06:01:34.348Z,-0.10
2018-01-14T06:04:02.646Z,-0.10
2018-01-14T06:06:30.173Z,-0.10
2018-01-14T06:08:58.035Z,-0.10
2018-01-14T06:11:25.552Z,-0.10
2018-01-14T06:13:53.849Z,0.00
2018-01-14T06:16:21.618Z,-0.10
2018-01-14T06:18:49.138Z,-0.10
2018-01-14T06:21:16.606Z,-0.10
2018-01-14T06:23:44.204Z,-0.20
2018-01-14T06:26:11.781Z,-0.20
2018-01-14T06:28:39.443Z,-0.20
2018-01-14T06:31:07.196Z,-0.30
2018-01-14T06:33:34.769Z,-0.30
2018-01-14T06:36:03.087Z,-0.30
2018-01-14T06:38:30.680Z,-0.30
2018-01-14T06:40:59.020Z,-0.30
2018-01-14T06:43:26.559Z,-0.30
2018-01-14T06:45:54.331Z,-0.50
2018-01-14T06:48:22.642Z,-0.40
2018-01-14T06:50:50.180Z,-0.40
2018-01-14T06:53:17.713Z,-0.30
2018-01-14T06:55:45.287Z,-0.30
2018-01-14T06:58:12.861Z,-0.30
2018-01-14T07:00:40.493Z,-0.30
2018-01-14T07:03:08.067Z,-0.40
2018-01-14T07:05:35.603Z,-0.40
2018-01-14T07:08:04.164Z,-0.30
2018-01-14T07:10:32.420Z,-0.30
2018-01-14T07:12:59.963Z,-0.30
2018-01-14T07:15:28.262Z,-0.30
2018-01-14T07:17:55.793Z,-0.30
2018-01-14T07:20:23.368Z,-0.30
2018-01-14T07:22:50.939Z,-0.30
2018-01-14T07:25:18.612Z,-0.20
2018-01-14T07:27:46.995Z,-0.10
2018-01-14T07:30:14.612Z,-0.10
2018-01-14T07:32:42.155Z,-0.10
2018-01-14T07:35:09.724Z,-0.10
2018-01-14T07:37:37.311Z,-0.10
2018-01-14T07:40:04.871Z,-0.10
2018-01-14T07:42:32.410Z,-0.10
2018-01-14T07:45:00.023Z,-0.10
2018-01-14T07:47:28.268Z,-0.10
2018-01-14T07:49:55.844Z,-0.10
2018-01-14T07:52:23.444Z,-0.10
2018-01-14T07:54:50.985Z,0.00
2018-01-14T07:57:18.530Z,0.10
2018-01-14T07:59:46.420Z,0.10
2018-01-14T08:02:13.963Z,0.10
2018-01-14T08:04:42.267Z,0.30
2018-01-14T08:07:10.035Z,0.20
2018-01-14T08:09:37.572Z,0.20
2018-01-14T08:12:05.107Z,0.20
2018-01-14T08:14:32.871Z,0.20
2018-01-14T08:17:00.440Z,0.20
2018-01-14T08:19:28.767Z,0.40
2018-01-14T08:21:56.323Z,0.30
2018-01-14T08:24:23.900Z,0.40
2018-01-14T08:26:52.208Z,0.50
2018-01-14T08:29:19.912Z,0.50
2018-01-14T08:31:48.215Z,0.50
2018-01-14T08:34:15.790Z,0.50
2018-01-14T08:36:43.518Z,0.60
2018-01-14T08:39:11.101Z,0.60
2018-01-14T08:49:44.528Z,17.70
2018-01-14T08:52:12.186Z,16.60
2018-01-14T08:54:39.722Z,13.40
2018-01-14T08:57:07.590Z,9.70
2018-01-14T08:59:35.156Z,7.50
2018-01-14T09:02:02.720Z,6.10
2018-01-14T09:04:31.117Z,4.30
2018-01-14T09:06:58.696Z,4.30
2018-01-14T09:09:26.236Z,3.70
2018-01-14T09:11:53.787Z,3.30
2018-01-14T09:14:21.409Z,3.00
2018-01-14T09:16:48.935Z,2.80
2018-01-14T09:19:16.441Z,2.60
2018-01-14T09:21:44.739Z,2.40
2018-01-14T09:24:12.272Z,2.40
2018-01-14T09:26:39.867Z,2.30
2018-01-14T09:29:07.440Z,2.30
2018-01-14T09:31:35.758Z,2.30
2018-01-14T09:34:03.675Z,2.30
2018-01-14T09:36:31.207Z,2.30
2018-01-14T09:38:58.812Z,2.40
2018-01-14T09:41:26.489Z,2.40
2018-01-14T09:43:54.902Z,2.40
2018-01-14T09:46:22.541Z,2.30
2018-01-14T09:48:50.191Z,2.40
2018-01-14T09:51:17.731Z,2.50
2018-01-14T09:53:45.272Z,2.60
2018-01-14T09:56:12.868Z,2.60
2018-01-14T09:58:41.392Z,2.80
2018-01-14T10:01:08.921Z,2.80
2018-01-14T10:03:36.512Z,2.80
2018-01-14T10:06:04.043Z,2.90
2018-01-14T10:08:31.515Z,3.10
2018-01-14T10:10:59.819Z,3.20
2018-01-14T10:13:27.348Z,3.10
2018-01-14T10:15:54.904Z,3.20
2018-01-14T10:36:17.909Z,5.00
2018-01-14T10:42:09.100Z,4.50
2018-01-14T10:44:37.405Z,4.30
2018-01-14T10:47:05.033Z,4.30
2018-01-14T10:49:32.597Z,4.30
2018-01-14T10:52:00.135Z,4.20
2018-01-14T10:54:27.771Z,4.20
2018-01-14T10:56:55.335Z,4.20
2018-01-14T10:59:23.166Z,4.00
2018-01-14T11:01:50.703Z,3.80
2018-01-14T11:04:18.692Z,3.60
2018-01-14T11:06:46.225Z,3.50
2018-01-14T11:09:13.768Z,3.40
2018-01-14T11:11:41.576Z,3.40
2018-01-14T11:14:09.154Z,3.40
2018-01-14T11:16:36.689Z,3.30
2018-01-14T11:19:04.293Z,3.30
2018-01-14T11:21:31.864Z,3.20
2018-01-14T11:23:59.401Z,3.10
2018-01-14T11:26:27.017Z,3.10
2018-01-14T11:28:54.591Z,3.00
2018-01-14T11:31:22.160Z,3.00
2018-01-14T11:33:49.979Z,3.00
2018-01-14T11:36:17.566Z,3.00
2018-01-14T11:38:45.136Z,3.00
2018-01-14T11:41:12.728Z,3.10
2018-01-14T11:43:40.280Z,3.10
2018-01-14T11:46:07.856Z,3.30
2018-01-14T11:48:35.462Z,3.30
2018-01-14T11:51:03.046Z,3.30
2018-01-14T11:53:30.578Z,3.50
2018-01-14T11:55:59.154Z,3.70
2018-01-14T11:58:27.497Z,3.70
2018-01-14T12:00:55.035Z,3.70
2018-01-14T12:03:22.564Z,3.70
2018-01-14T12:05:50.103Z,3.70
2018-01-14T12:08:17.657Z,3.70
2018-01-14T12:10:45.264Z,3.70
2018-01-14T12:13:13.567Z,3.70
2018-01-14T12:15:41.144Z,3.60
2018-01-14T12:18:08.699Z,3.70
2018-01-14T12:20:36.274Z,3.70
2018-01-14T12:23:03.842Z,3.70
2018-01-14T12:25:31.437Z,3.70
2018-01-14T12:27:59.776Z,3.70
2018-01-14T12:30:27.303Z,3.60
2018-01-14T12:33:08.815Z,3.60
2018-01-14T12:35:37.115Z,3.70
2018-01-14T12:38:04.658Z,3.60
2018-01-14T12:40:32.260Z,3.70
2018-01-14T12:43:00.608Z,3.70
2018-01-14T12:45:28.180Z,3.70
2018-01-14T12:47:56.548Z,3.80
2018-01-14T12:50:24.847Z,3.90
2018-01-14T12:52:52.422Z,3.90
2018-01-14T12:55:20.181Z,3.80
2018-01-14T12:57:47.724Z,3.90
2018-01-14T13:00:15.399Z,3.90
2018-01-14T13:02:43.280Z,4.00
2018-01-14T13:05:10.880Z,4.00
2018-01-14T13:07:39.215Z,4.00
2018-01-14T13:10:06.861Z,4.00
2018-01-14T13:12:34.432Z,4.00
2018-01-14T13:15:02.737Z,3.90
2018-01-14T13:17:30.406Z,3.90
2018-01-14T13:19:57.988Z,3.90
2018-01-14T13:22:26.328Z,3.90
2018-01-14T13:24:54.098Z,3.80
2018-01-14T13:27:22.428Z,3.90
2018-01-14T13:29:49.963Z,3.90
2018-01-14T13:32:17.686Z,3.90
2018-01-14T13:34:45.252Z,3.90
2018-01-14T13:37:12.788Z,3.90
2018-01-14T13:39:40.505Z,3.90
2018-01-14T13:42:08.073Z,4.00
2018-01-14T13:44:35.721Z,3.90
2018-01-14T13:47:03.279Z,4.00
2018-01-14T13:49:30.848Z,4.00
2018-01-14T13:51:59.193Z,4.00
2018-01-14T13:54:26.729Z,4.00
2018-01-14T13:56:54.233Z,4.00
2018-01-14T13:59:21.800Z,4.10
2018-01-14T14:01:49.696Z,4.10
2018-01-14T14:04:18.010Z,4.10
2018-01-14T14:06:45.581Z,4.00
2018-01-14T14:09:13.154Z,4.00
2018-01-14T14:11:40.711Z,3.90
2018-01-14T14:14:08.317Z,3.80
2018-01-14T14:16:35.940Z,3.70
2018-01-14T14:19:03.529Z,3.70
2018-01-14T14:21:31.863Z,3.70
2018-01-14T14:23:59.430Z,3.70
2018-01-14T14:26:27.672Z,3.80
2018-01-14T14:28:55.400Z,3.70
2018-01-14T14:31:23.155Z,3.70
2018-01-14T14:33:50.700Z,3.70
2018-01-14T14:36:18.273Z,3.60
2018-01-14T14:38:46.956Z,3.70
2018-01-14T14:41:14.651Z,3.80
2018-01-14T14:43:42.229Z,3.80
2018-01-14T14:46:10.014Z,3.80
2018-01-14T14:48:37.587Z,3.80
2018-01-14T14:51:05.139Z,3.80
2018-01-14T14:53:32.933Z,3.80
2018-01-14T14:56:01.273Z,3.80
2018-01-14T14:58:29.027Z,3.80
2018-01-14T15:00:56.630Z,3.80
2018-01-14T15:03:24.284Z,3.80
2018-01-14T15:05:51.819Z,3.80
2018-01-14T15:08:19.362Z,3.70
2018-01-14T15:10:46.928Z,3.60
2018-01-14T15:13:14.556Z,3.50
2018-01-14T15:15:42.205Z,3.40
2018-01-14T15:18:09.778Z,3.30
2018-01-14T15:20:37.313Z,3.30
2018-01-14T15:23:04.916Z,3.20
2018-01-14T15:25:32.521Z,3.20
2018-01-14T15:28:00.839Z,3.20
2018-01-14T15:30:28.448Z,3.20
2018-01-14T15:32:56.045Z,3.20
2018-01-14T15:35:23.582Z,3.20
2018-01-14T15:37:51.323Z,3.20
2018-01-14T15:40:18.880Z,3.20
2018-01-14T15:42:46.410Z,3.20
2018-01-14T15:45:14.037Z,3.20
2018-01-14T15:47:41.597Z,3.20
2018-01-14T15:50:09.160Z,3.20
2018-01-14T15:52:36.708Z,3.20
2018-01-14T15:55:04.306Z,3.10
2018-01-14T15:57:31.841Z,3.10
2018-01-14T15:59:59.681Z,3.00
2018-01-14T16:02:28.021Z,2.90
2018-01-14T16:04:55.606Z,2.90
2018-01-14T16:07:23.273Z,2.90
2018-01-14T16:09:50.841Z,2.80
2018-01-14T16:12:19.198Z,2.80
2018-01-14T16:14:47.005Z,2.80
2018-01-14T16:17:14.576Z,2.80
2018-01-14T16:19:42.807Z,2.80
2018-01-14T16:22:10.640Z,2.80
2018-01-14T16:24:38.226Z,2.80
2018-01-14T16:27:05.805Z,2.80
2018-01-14T16:29:33.388Z,2.80
2018-01-14T16:32:00.961Z,2.80
2018-01-14T16:34:28.499Z,2.80
2018-01-14T16:36:56.465Z,2.80
2018-01-14T16:39:24.022Z,2.70
2018-01-14T16:41:51.497Z,2.70
2018-01-14T16:44:20.169Z,2.80
2018-01-14T16:46:48.541Z,2.90
2018-01-14T16:49:16.080Z,2.90
2018-01-14T16:51:44.408Z,2.80
2018-01-14T16:54:11.980Z,2.80
2018-01-14T16:56:40.285Z,2.80
2018-01-14T16:59:07.898Z,2.80
2018-01-14T17:01:35.435Z,2.80
2018-01-14T17:04:03.739Z,2.70
2018-01-14T17:06:31.748Z,2.70
2018-01-14T17:09:00.091Z,2.70
2018-01-14T17:11:27.634Z,2.70
2018-01-14T17:13:56.164Z,2.70
2018-01-14T17:16:23.737Z,2.70
2018-01-14T17:18:51.286Z,2.80
2018-01-14T17:21:18.847Z,2.70
2018-01-14T17:23:47.181Z,2.60
2018-01-14T17:26:14.702Z,2.60
2018-01-14T17:28:42.300Z,2.70
2018-01-14T17:31:10.645Z,2.70
2018-01-14T17:33:38.250Z,2.70
2018-01-14T17:36:05.850Z,2.70
2018-01-14T17:38:34.144Z,2.70
2018-01-14T17:41:01.687Z,2.60
2018-01-14T17:43:29.403Z,2.70
2018-01-14T17:45:57.843Z,2.70
2018-01-14T17:48:25.375Z,2.80
2018-01-14T17:50:53.031Z,2.80
2018-01-14T17:53:20.609Z,2.80
2018-01-14T17:55:48.180Z,2.90
2018-01-14T17:58:15.893Z,2.90
2018-01-14T18:00:44.265Z,2.80
2018-01-14T18:03:11.799Z,2.70
2018-01-14T18:05:40.137Z,2.60
2018-01-14T18:08:07.735Z,2.60
2018-01-14T18:10:35.313Z,2.60
2018-01-14T18:13:03.280Z,2.50
2018-01-14T18:15:30.857Z,2.60
2018-01-14T18:17:58.391Z,2.50
2018-01-14T18:20:25.988Z,2.60
2018-01-14T18:22:53.519Z,2.60
2018-01-14T18:25:21.095Z,2.60
2018-01-14T18:27:48.663Z,2.50
2018-01-14T18:30:16.203Z,2.60
2018-01-14T18:32:43.681Z,2.50
2018-01-14T18:35:11.467Z,2.50
2018-01-14T18:37:39.805Z,2.50
2018-01-14T18:40:07.344Z,2.40
2018-01-14T18:42:34.936Z,2.50
2018-01-14T18:45:02.533Z,2.40
2018-01-14T18:47:30.109Z,2.40
2018-01-14T18:49:58.438Z,2.50
2018-01-14T18:52:26.016Z,2.40
2018-01-14T18:54:54.321Z,2.40
2018-01-14T18:57:22.087Z,2.40
2018-01-14T18:59:49.614Z,2.40
2018-01-14T19:02:17.150Z,2.40
2018-01-14T19:04:44.854Z,2.40
2018-01-14T19:07:12.383Z,2.40
2018-01-14T19:09:40.003Z,2.40
2018-01-14T19:12:07.939Z,2.40
2018-01-14T19:14:36.239Z,2.40
2018-01-14T19:17:03.780Z,2.40
2018-01-14T19:19:31.282Z,2.40
2018-01-14T19:21:59.612Z,2.40
2018-01-14T19:24:27.152Z,2.40
2018-01-14T19:26:55.003Z,2.40
2018-01-14T19:29:22.620Z,2.40
2018-01-14T19:31:50.241Z,2.40
2018-01-14T19:34:17.815Z,2.30
2018-01-14T19:36:45.456Z,2.30
2018-01-14T19:39:13.034Z,2.40
2018-01-14T19:41:40.626Z,2.30
2018-01-14T19:44:08.155Z,2.40
2018-01-14T19:46:35.789Z,2.30
2018-01-14T19:49:04.279Z,2.30
2018-01-14T19:51:31.851Z,2.30
2018-01-14T19:53:59.432Z,2.30
2018-01-14T19:56:27.966Z,2.20
2018-01-14T19:58:55.503Z,2.10
2018-01-14T20:01:23.158Z,2.20
2018-01-14T20:03:51.161Z,2.20
2018-01-14T20:06:19.495Z,2.30
2018-01-14T20:08:48.478Z,2.30
2018-01-14T20:11:16.374Z,2.30
2018-01-14T20:13:44.036Z,2.30
2018-01-14T20:16:11.603Z,2.40
2018-01-14T20:18:39.497Z,2.30
2018-01-14T20:21:07.786Z,2.30
2018-01-14T20:23:35.365Z,2.30
2018-01-14T20:26:03.921Z,2.20
2018-01-14T20:28:31.455Z,2.20
2018-01-14T20:30:59.036Z,2.10
2018-01-14T20:33:26.772Z,2.10
2018-01-14T20:35:54.287Z,2.10
2018-01-14T20:38:21.857Z,2.10
2018-01-14T20:40:49.659Z,2.10
2018-01-14T20:43:17.216Z,2.10
2018-01-14T20:45:44.789Z,2.10
2018-01-14T20:48:12.484Z,2.00
2018-01-14T20:50:40.055Z,2.10
2018-01-14T20:53:07.609Z,2.10
2018-01-14T20:55:35.278Z,2.10
2018-01-14T20:58:02.814Z,2.00
2018-01-14T21:00:30.343Z,2.00
2018-01-14T21:02:58.145Z,2.00
2018-01-14T21:05:26.475Z,2.00
2018-01-14T21:07:54.013Z,2.00
2018-01-14T21:10:21.793Z,2.10
2018-01-14T21:12:50.383Z,2.20
